sensor_id;sensor_type;location;lat;lon;timestamp;pressure;altitude;pressure_sealevel;temperature;humidity
21401;BME280;18038;50.166;18.908;2023-05-29T00:00:27;98185.56;;;11.00;56.90
21401;BME280;18038;50.166;18.908;2023-05-29T00:03:40;98191.06;;;10.92;57.11
21401;BME280;18038;50.166;18.908;2023-05-29T00:06:51;98183.78;;;10.86;57.84
21401;BME280;18038;50.166;18.908;2023-05-29T00:09:58;98170.31;;;10.72;57.64
21401;BME280;18038;50.166;18.908;2023-05-29T00:13:07;98178.03;;;10.61;57.56
21401;BME280;18038;50.166;18.908;2023-05-29T00:16:13;98178.94;;;10.46;56.46
21401;BME280;18038;50.166;18.908;2023-05-29T00:19:21;98172.50;;;10.41;56.70
21401;BME280;18038;50.166;18.908;2023-05-29T00:22:27;98172.19;;;10.36;56.89
21401;BME280;18038;50.166;18.908;2023-05-29T00:25:34;98168.28;;;10.32;57.40
21401;BME280;18038;50.166;18.908;2023-05-29T00:28:45;98163.69;;;10.25;57.58
21401;BME280;18038;50.166;18.908;2023-05-29T00:31:52;98160.94;;;10.19;58.62
21401;BME280;18038;50.166;18.908;2023-05-29T00:34:59;98158.22;;;10.12;57.24
21401;BME280;18038;50.166;18.908;2023-05-29T00:38:06;98159.41;;;10.10;57.42
21401;BME280;18038;50.166;18.908;2023-05-29T00:41:14;98161.88;;;10.11;57.11
21401;BME280;18038;50.166;18.908;2023-05-29T00:44:24;98154.81;;;10.03;57.74
21401;BME280;18038;50.166;18.908;2023-05-29T00:47:30;98156.88;;;10.01;57.84
21401;BME280;18038;50.166;18.908;2023-05-29T00:50:38;98152.16;;;10.03;58.32
21401;BME280;18038;50.166;18.908;2023-05-29T00:53:44;98150.88;;;9.99;59.92
21401;BME280;18038;50.166;18.908;2023-05-29T00:56:53;98157.59;;;9.95;60.07
21401;BME280;18038;50.166;18.908;2023-05-29T01:00:06;98158.34;;;9.89;61.68
21401;BME280;18038;50.166;18.908;2023-05-29T01:03:20;98159.94;;;9.69;62.82
21401;BME280;18038;50.166;18.908;2023-05-29T01:06:27;98159.13;;;9.53;63.78
21401;BME280;18038;50.166;18.908;2023-05-29T01:09:41;98148.38;;;9.47;63.46
21401;BME280;18038;50.166;18.908;2023-05-29T01:12:57;98158.22;;;9.46;63.39
21401;BME280;18038;50.166;18.908;2023-05-29T01:16:20;98156.47;;;9.38;62.38
21401;BME280;18038;50.166;18.908;2023-05-29T01:19:56;98156.56;;;9.30;61.64
21401;BME280;18038;50.166;18.908;2023-05-29T01:23:28;98152.97;;;9.23;61.64
21401;BME280;18038;50.166;18.908;2023-05-29T01:26:58;98157.47;;;9.23;62.69
21401;BME280;18038;50.166;18.908;2023-05-29T01:30:11;98161.13;;;9.22;63.14
21401;BME280;18038;50.166;18.908;2023-05-29T01:33:18;98156.56;;;9.15;63.42
21401;BME280;18038;50.166;18.908;2023-05-29T01:36:26;98156.91;;;9.12;63.54
21401;BME280;18038;50.166;18.908;2023-05-29T01:39:35;98153.81;;;9.09;63.21
21401;BME280;18038;50.166;18.908;2023-05-29T01:42:45;98158.00;;;9.03;62.29
21401;BME280;18038;50.166;18.908;2023-05-29T01:45:53;98149.38;;;9.01;62.65
21401;BME280;18038;50.166;18.908;2023-05-29T01:48:59;98144.06;;;9.01;62.63
21401;BME280;18038;50.166;18.908;2023-05-29T01:52:06;98140.75;;;8.99;63.13
21401;BME280;18038;50.166;18.908;2023-05-29T01:55:16;98142.38;;;9.00;63.26
21401;BME280;18038;50.166;18.908;2023-05-29T01:58:27;98141.03;;;9.04;63.38
21401;BME280;18038;50.166;18.908;2023-05-29T02:01:38;98134.31;;;9.08;63.90
21401;BME280;18038;50.166;18.908;2023-05-29T02:04:45;98147.00;;;9.06;63.96
21401;BME280;18038;50.166;18.908;2023-05-29T02:07:51;98147.34;;;9.03;64.49
21401;BME280;18038;50.166;18.908;2023-05-29T02:11:01;98141.84;;;9.05;64.76
21401;BME280;18038;50.166;18.908;2023-05-29T02:14:10;98142.88;;;9.04;65.32
21401;BME280;18038;50.166;18.908;2023-05-29T02:17:19;98136.63;;;9.11;64.68
21401;BME280;18038;50.166;18.908;2023-05-29T02:20:25;98136.34;;;9.06;65.19
21401;BME280;18038;50.166;18.908;2023-05-29T02:23:32;98129.81;;;9.09;64.83
21401;BME280;18038;50.166;18.908;2023-05-29T02:26:38;98140.66;;;9.07;64.68
21401;BME280;18038;50.166;18.908;2023-05-29T02:29:48;98135.69;;;9.04;64.44
21401;BME280;18038;50.166;18.908;2023-05-29T02:32:56;98139.06;;;8.98;64.78
21401;BME280;18038;50.166;18.908;2023-05-29T02:36:04;98132.16;;;8.89;65.51
21401;BME280;18038;50.166;18.908;2023-05-29T02:39:16;98130.84;;;8.85;65.93
21401;BME280;18038;50.166;18.908;2023-05-29T02:42:23;98126.91;;;8.81;66.23
21401;BME280;18038;50.166;18.908;2023-05-29T02:45:31;98127.63;;;8.74;66.34
21401;BME280;18038;50.166;18.908;2023-05-29T02:48:38;98131.28;;;8.73;66.65
21401;BME280;18038;50.166;18.908;2023-05-29T02:51:45;98119.69;;;8.66;67.04
21401;BME280;18038;50.166;18.908;2023-05-29T02:54:52;98117.59;;;8.62;67.11
21401;BME280;18038;50.166;18.908;2023-05-29T02:57:59;98111.78;;;8.58;67.17
21401;BME280;18038;50.166;18.908;2023-05-29T03:01:08;98117.09;;;8.58;67.16
21401;BME280;18038;50.166;18.908;2023-05-29T03:04:20;98116.03;;;8.67;67.07
21401;BME280;18038;50.166;18.908;2023-05-29T03:07:29;98110.34;;;8.70;66.95
21401;BME280;18038;50.166;18.908;2023-05-29T03:10:35;98116.13;;;8.74;66.64
21401;BME280;18038;50.166;18.908;2023-05-29T03:13:42;98112.63;;;8.73;66.67
21401;BME280;18038;50.166;18.908;2023-05-29T03:16:52;98118.34;;;8.70;66.62
21401;BME280;18038;50.166;18.908;2023-05-29T03:20:06;98117.22;;;8.65;66.79
21401;BME280;18038;50.166;18.908;2023-05-29T03:23:28;98116.41;;;8.64;66.75
21401;BME280;18038;50.166;18.908;2023-05-29T03:26:35;98121.94;;;8.77;66.74
21401;BME280;18038;50.166;18.908;2023-05-29T03:29:42;98115.63;;;8.93;66.10
21401;BME280;18038;50.166;18.908;2023-05-29T03:32:53;98113.00;;;9.08;65.79
21401;BME280;18038;50.166;18.908;2023-05-29T03:36:14;98121.28;;;9.28;64.96
21401;BME280;18038;50.166;18.908;2023-05-29T03:39:30;98124.28;;;9.40;64.21
21401;BME280;18038;50.166;18.908;2023-05-29T03:42:36;98130.00;;;9.52;63.57
21401;BME280;18038;50.166;18.908;2023-05-29T03:45:43;98121.84;;;9.75;63.04
21401;BME280;18038;50.166;18.908;2023-05-29T03:48:52;98123.19;;;10.00;62.22
21401;BME280;18038;50.166;18.908;2023-05-29T03:51:59;98128.53;;;10.37;61.29
21401;BME280;18038;50.166;18.908;2023-05-29T03:55:14;98128.19;;;10.68;60.13
21401;BME280;18038;50.166;18.908;2023-05-29T03:58:26;98125.81;;;11.08;59.02
21401;BME280;18038;50.166;18.908;2023-05-29T04:01:33;98127.44;;;11.44;58.12
21401;BME280;18038;50.166;18.908;2023-05-29T04:04:43;98127.25;;;11.80;57.14
21401;BME280;18038;50.166;18.908;2023-05-29T04:07:49;98124.69;;;12.20;55.86
21401;BME280;18038;50.166;18.908;2023-05-29T04:11:09;98125.16;;;12.57;54.74
21401;BME280;18038;50.166;18.908;2023-05-29T04:14:16;98136.28;;;13.00;52.62
21401;BME280;18038;50.166;18.908;2023-05-29T04:17:27;98135.81;;;13.43;51.80
21401;BME280;18038;50.166;18.908;2023-05-29T04:20:35;98141.78;;;13.52;50.93
21401;BME280;18038;50.166;18.908;2023-05-29T04:23:44;98141.03;;;13.96;50.26
21401;BME280;18038;50.166;18.908;2023-05-29T04:26:50;98147.91;;;14.24;49.21
21401;BME280;18038;50.166;18.908;2023-05-29T04:29:57;98136.72;;;14.59;48.91
21401;BME280;18038;50.166;18.908;2023-05-29T04:33:07;98141.50;;;14.57;48.22
21401;BME280;18038;50.166;18.908;2023-05-29T04:36:24;98147.13;;;14.80;47.26
21401;BME280;18038;50.166;18.908;2023-05-29T04:39:46;98149.97;;;14.54;48.62
21401;BME280;18038;50.166;18.908;2023-05-29T04:42:59;98150.56;;;14.62;48.13
21401;BME280;18038;50.166;18.908;2023-05-29T04:46:26;98146.78;;;15.02;47.01
21401;BME280;18038;50.166;18.908;2023-05-29T04:49:36;98149.59;;;15.32;45.97
21401;BME280;18038;50.166;18.908;2023-05-29T04:52:45;98160.38;;;15.50;45.98
21401;BME280;18038;50.166;18.908;2023-05-29T04:55:52;98150.13;;;15.59;45.71
21401;BME280;18038;50.166;18.908;2023-05-29T04:58:58;98156.25;;;15.48;46.23
21401;BME280;18038;50.166;18.908;2023-05-29T05:02:11;98155.03;;;15.81;44.87
21401;BME280;18038;50.166;18.908;2023-05-29T05:05:17;98163.88;;;15.69;45.49
21401;BME280;18038;50.166;18.908;2023-05-29T05:08:34;98168.84;;;15.91;44.82
21401;BME280;18038;50.166;18.908;2023-05-29T05:11:40;98160.91;;;16.45;44.35
21401;BME280;18038;50.166;18.908;2023-05-29T05:14:48;98161.13;;;16.85;43.46
21401;BME280;18038;50.166;18.908;2023-05-29T05:17:54;98161.47;;;16.77;43.85
21401;BME280;18038;50.166;18.908;2023-05-29T05:21:02;98158.13;;;16.21;43.79
21401;BME280;18038;50.166;18.908;2023-05-29T05:24:13;98148.97;;;15.92;43.40
21401;BME280;18038;50.166;18.908;2023-05-29T05:27:20;98165.16;;;16.04;44.00
21401;BME280;18038;50.166;18.908;2023-05-29T05:30:27;98159.03;;;16.57;44.19
21401;BME280;18038;50.166;18.908;2023-05-29T05:33:35;98163.88;;;17.08;44.45
21401;BME280;18038;50.166;18.908;2023-05-29T05:36:41;98170.19;;;17.02;44.80
21401;BME280;18038;50.166;18.908;2023-05-29T05:39:52;98176.31;;;17.80;43.14
21401;BME280;18038;50.166;18.908;2023-05-29T05:43:06;98169.69;;;18.28;42.29
21401;BME280;18038;50.166;18.908;2023-05-29T05:46:33;98171.63;;;17.64;41.98
21401;BME280;18038;50.166;18.908;2023-05-29T05:49:39;98179.13;;;17.85;41.41
21401;BME280;18038;50.166;18.908;2023-05-29T05:52:47;98174.91;;;17.66;40.78
21401;BME280;18038;50.166;18.908;2023-05-29T05:55:58;98171.34;;;18.01;41.64
21401;BME280;18038;50.166;18.908;2023-05-29T05:59:05;98174.19;;;18.23;39.87
21401;BME280;18038;50.166;18.908;2023-05-29T06:02:12;98177.44;;;18.65;37.84
21401;BME280;18038;50.166;18.908;2023-05-29T06:05:19;98175.72;;;18.47;38.35
21401;BME280;18038;50.166;18.908;2023-05-29T06:08:26;98185.00;;;18.23;38.10
21401;BME280;18038;50.166;18.908;2023-05-29T06:11:36;98186.31;;;18.20;38.89
21401;BME280;18038;50.166;18.908;2023-05-29T06:14:43;98190.84;;;19.05;38.39
21401;BME280;18038;50.166;18.908;2023-05-29T06:17:50;98195.34;;;18.83;38.19
21401;BME280;18038;50.166;18.908;2023-05-29T06:20:59;98199.94;;;19.16;38.32
21401;BME280;18038;50.166;18.908;2023-05-29T06:24:06;98200.69;;;19.45;37.22
21401;BME280;18038;50.166;18.908;2023-05-29T06:27:15;98205.16;;;19.74;37.57
21401;BME280;18038;50.166;18.908;2023-05-29T06:30:23;98202.59;;;20.06;36.77
21401;BME280;18038;50.166;18.908;2023-05-29T06:33:29;98208.31;;;19.48;37.40
21401;BME280;18038;50.166;18.908;2023-05-29T06:36:36;98209.03;;;19.61;37.36
21401;BME280;18038;50.166;18.908;2023-05-29T06:39:44;98221.34;;;19.68;36.98
21401;BME280;18038;50.166;18.908;2023-05-29T06:42:53;98218.41;;;19.70;37.31
21401;BME280;18038;50.166;18.908;2023-05-29T06:46:12;98222.16;;;20.30;36.14
21401;BME280;18038;50.166;18.908;2023-05-29T06:49:19;98223.31;;;21.10;35.62
21401;BME280;18038;50.166;18.908;2023-05-29T06:52:27;98222.19;;;21.43;34.63
21401;BME280;18038;50.166;18.908;2023-05-29T06:56:14;98219.84;;;20.17;35.53
21401;BME280;18038;50.166;18.908;2023-05-29T06:59:25;98221.25;;;20.46;34.69
21401;BME280;18038;50.166;18.908;2023-05-29T07:02:32;98222.59;;;20.44;35.92
21401;BME280;18038;50.166;18.908;2023-05-29T07:05:38;98222.09;;;20.47;35.29
21401;BME280;18038;50.166;18.908;2023-05-29T07:08:45;98216.75;;;20.79;34.58
21401;BME280;18038;50.166;18.908;2023-05-29T07:11:52;98222.81;;;20.64;34.75
21401;BME280;18038;50.166;18.908;2023-05-29T07:15:02;98230.75;;;20.22;35.45
21401;BME280;18038;50.166;18.908;2023-05-29T07:18:09;98229.63;;;20.67;35.09
21401;BME280;18038;50.166;18.908;2023-05-29T07:21:18;98226.69;;;22.07;32.98
21401;BME280;18038;50.166;18.908;2023-05-29T07:24:24;98227.75;;;22.90;32.58
21401;BME280;18038;50.166;18.908;2023-05-29T07:27:32;98231.03;;;22.66;32.96
21401;BME280;18038;50.166;18.908;2023-05-29T07:30:41;98225.88;;;22.90;31.45
21401;BME280;18038;50.166;18.908;2023-05-29T07:33:47;98230.56;;;23.26;32.08
21401;BME280;18038;50.166;18.908;2023-05-29T07:37:00;98224.03;;;24.48;30.01
21401;BME280;18038;50.166;18.908;2023-05-29T07:40:10;98239.19;;;24.10;28.85
21401;BME280;18038;50.166;18.908;2023-05-29T07:43:55;98238.44;;;22.96;29.51
21401;BME280;18038;50.166;18.908;2023-05-29T07:47:05;98237.09;;;23.35;29.03
21401;BME280;18038;50.166;18.908;2023-05-29T07:50:25;98234.34;;;23.45;30.83
21401;BME280;18038;50.166;18.908;2023-05-29T07:53:31;98230.28;;;23.02;29.19
21401;BME280;18038;50.166;18.908;2023-05-29T07:56:40;98232.19;;;23.22;29.55
21401;BME280;18038;50.166;18.908;2023-05-29T07:59:47;98240.34;;;23.27;28.92
21401;BME280;18038;50.166;18.908;2023-05-29T08:02:56;98236.53;;;23.74;29.03
21401;BME280;18038;50.166;18.908;2023-05-29T08:06:11;98237.66;;;23.06;28.12
21401;BME280;18038;50.166;18.908;2023-05-29T08:09:17;98246.63;;;23.63;28.58
21401;BME280;18038;50.166;18.908;2023-05-29T08:12:24;98240.47;;;24.33;27.33
21401;BME280;18038;50.166;18.908;2023-05-29T08:15:35;98245.81;;;23.73;27.23
21401;BME280;18038;50.166;18.908;2023-05-29T08:18:44;98237.34;;;23.08;28.89
21401;BME280;18038;50.166;18.908;2023-05-29T08:21:57;98237.00;;;22.79;29.08
21401;BME280;18038;50.166;18.908;2023-05-29T08:25:05;98237.03;;;22.84;27.16
21401;BME280;18038;50.166;18.908;2023-05-29T08:28:12;98231.75;;;22.41;30.03
21401;BME280;18038;50.166;18.908;2023-05-29T08:31:19;98237.94;;;23.35;30.20
21401;BME280;18038;50.166;18.908;2023-05-29T08:34:29;98243.09;;;23.62;26.67
21401;BME280;18038;50.166;18.908;2023-05-29T08:37:36;98244.47;;;23.14;25.55
21401;BME280;18038;50.166;18.908;2023-05-29T08:40:59;98245.28;;;23.66;26.69
21401;BME280;18038;50.166;18.908;2023-05-29T08:44:08;98233.94;;;24.28;25.81
21401;BME280;18038;50.166;18.908;2023-05-29T08:47:26;98238.72;;;23.61;25.20
21401;BME280;18038;50.166;18.908;2023-05-29T08:50:44;98243.63;;;23.24;25.83
21401;BME280;18038;50.166;18.908;2023-05-29T08:53:51;98247.44;;;23.79;26.46
21401;BME280;18038;50.166;18.908;2023-05-29T08:57:00;98250.69;;;23.45;25.77
21401;BME280;18038;50.166;18.908;2023-05-29T09:00:07;98238.72;;;23.56;28.22
21401;BME280;18038;50.166;18.908;2023-05-29T09:03:16;98239.00;;;23.14;25.42
21401;BME280;18038;50.166;18.908;2023-05-29T09:06:27;98236.53;;;23.48;26.23
21401;BME280;18038;50.166;18.908;2023-05-29T09:09:35;98239.59;;;24.47;26.62
21401;BME280;18038;50.166;18.908;2023-05-29T09:12:42;98230.97;;;24.15;25.43
21401;BME280;18038;50.166;18.908;2023-05-29T09:15:49;98237.34;;;23.69;26.51
21401;BME280;18038;50.166;18.908;2023-05-29T09:19:05;98242.28;;;23.67;26.23
21401;BME280;18038;50.166;18.908;2023-05-29T09:22:18;98239.28;;;23.28;26.14
21401;BME280;18038;50.166;18.908;2023-05-29T09:25:26;98243.63;;;23.59;26.63
21401;BME280;18038;50.166;18.908;2023-05-29T09:28:34;98242.97;;;24.14;26.39
21401;BME280;18038;50.166;18.908;2023-05-29T09:31:46;98243.66;;;23.65;25.19
21401;BME280;18038;50.166;18.908;2023-05-29T09:35:00;98238.44;;;23.37;25.65
21401;BME280;18038;50.166;18.908;2023-05-29T09:38:10;98237.53;;;24.03;25.10
21401;BME280;18038;50.166;18.908;2023-05-29T09:41:41;98237.44;;;24.44;24.75
21401;BME280;18038;50.166;18.908;2023-05-29T09:44:49;98224.16;;;24.72;25.69
21401;BME280;18038;50.166;18.908;2023-05-29T09:47:58;98232.38;;;24.67;24.15
21401;BME280;18038;50.166;18.908;2023-05-29T09:51:19;98237.88;;;24.62;24.71
21401;BME280;18038;50.166;18.908;2023-05-29T09:54:39;98229.94;;;25.44;24.78
21401;BME280;18038;50.166;18.908;2023-05-29T09:57:47;98223.19;;;25.36;23.15
21401;BME280;18038;50.166;18.908;2023-05-29T10:00:54;98227.66;;;25.22;25.77
21401;BME280;18038;50.166;18.908;2023-05-29T10:04:01;98238.88;;;25.21;23.26
21401;BME280;18038;50.166;18.908;2023-05-29T10:07:10;98226.97;;;24.57;24.27
21401;BME280;18038;50.166;18.908;2023-05-29T10:10:35;98232.84;;;25.24;24.92
21401;BME280;18038;50.166;18.908;2023-05-29T10:13:47;98229.38;;;25.47;24.36
21401;BME280;18038;50.166;18.908;2023-05-29T10:16:58;98225.63;;;26.20;23.25
21401;BME280;18038;50.166;18.908;2023-05-29T10:20:17;98233.03;;;24.43;24.79
21401;BME280;18038;50.166;18.908;2023-05-29T10:23:29;98233.28;;;23.61;25.33
21401;BME280;18038;50.166;18.908;2023-05-29T10:26:40;98229.91;;;24.00;24.75
21401;BME280;18038;50.166;18.908;2023-05-29T10:30:01;98241.16;;;23.48;25.67
21401;BME280;18038;50.166;18.908;2023-05-29T10:33:35;98234.91;;;23.27;25.50
21401;BME280;18038;50.166;18.908;2023-05-29T10:36:59;98224.25;;;23.46;25.00
21401;BME280;18038;50.166;18.908;2023-05-29T10:40:12;98235.72;;;23.78;26.35
21401;BME280;18038;50.166;18.908;2023-05-29T10:43:34;98221.97;;;24.74;25.97
21401;BME280;18038;50.166;18.908;2023-05-29T10:47:01;98227.53;;;24.54;24.09
21401;BME280;18038;50.166;18.908;2023-05-29T10:50:09;98220.84;;;24.75;23.56
21401;BME280;18038;50.166;18.908;2023-05-29T10:53:17;98221.13;;;24.29;23.35
21401;BME280;18038;50.166;18.908;2023-05-29T10:56:31;98216.81;;;24.02;23.77
21401;BME280;18038;50.166;18.908;2023-05-29T10:59:40;98217.75;;;23.62;23.71
21401;BME280;18038;50.166;18.908;2023-05-29T11:02:46;98207.13;;;23.19;23.80
21401;BME280;18038;50.166;18.908;2023-05-29T11:05:57;98209.88;;;23.19;24.01
21401;BME280;18038;50.166;18.908;2023-05-29T11:09:27;98210.63;;;23.81;24.16
21401;BME280;18038;50.166;18.908;2023-05-29T11:12:56;98203.81;;;23.48;24.03
21401;BME280;18038;50.166;18.908;2023-05-29T11:16:14;98209.03;;;22.98;25.29
21401;BME280;18038;50.166;18.908;2023-05-29T11:19:26;98202.78;;;22.98;24.95
21401;BME280;18038;50.166;18.908;2023-05-29T11:22:56;98197.06;;;22.11;27.29
21401;BME280;18038;50.166;18.908;2023-05-29T11:26:12;98203.78;;;22.61;25.41
21401;BME280;18038;50.166;18.908;2023-05-29T11:29:22;98205.78;;;23.02;25.41
21401;BME280;18038;50.166;18.908;2023-05-29T11:32:36;98205.38;;;24.00;26.51
21401;BME280;18038;50.166;18.908;2023-05-29T11:35:43;98199.16;;;24.55;26.45
21401;BME280;18038;50.166;18.908;2023-05-29T11:38:52;98205.84;;;25.46;24.03
21401;BME280;18038;50.166;18.908;2023-05-29T11:42:00;98196.41;;;26.16;24.64
21401;BME280;18038;50.166;18.908;2023-05-29T11:45:13;98200.44;;;25.70;24.63
21401;BME280;18038;50.166;18.908;2023-05-29T11:48:22;98200.34;;;25.80;24.00
21401;BME280;18038;50.166;18.908;2023-05-29T11:51:29;98193.09;;;25.95;25.04
21401;BME280;18038;50.166;18.908;2023-05-29T11:54:35;98187.19;;;26.50;24.80
21401;BME280;18038;50.166;18.908;2023-05-29T11:57:43;98196.56;;;25.47;23.91
21401;BME280;18038;50.166;18.908;2023-05-29T12:00:52;98190.78;;;25.20;24.15
21401;BME280;18038;50.166;18.908;2023-05-29T12:04:01;98183.44;;;24.36;24.42
21401;BME280;18038;50.166;18.908;2023-05-29T12:07:19;98181.19;;;24.43;24.21
21401;BME280;18038;50.166;18.908;2023-05-29T12:10:26;98181.38;;;23.97;26.73
21401;BME280;18038;50.166;18.908;2023-05-29T12:13:36;98188.88;;;23.40;26.38
21401;BME280;18038;50.166;18.908;2023-05-29T12:16:44;98185.22;;;23.91;25.18
21401;BME280;18038;50.166;18.908;2023-05-29T12:19:53;98176.66;;;24.73;25.74
21401;BME280;18038;50.166;18.908;2023-05-29T12:23:01;98180.31;;;25.85;24.34
21401;BME280;18038;50.166;18.908;2023-05-29T12:26:09;98181.75;;;26.68;24.41
21401;BME280;18038;50.166;18.908;2023-05-29T12:29:15;98172.91;;;26.72;23.00
21401;BME280;18038;50.166;18.908;2023-05-29T12:32:24;98176.28;;;26.87;24.75
21401;BME280;18038;50.166;18.908;2023-05-29T12:35:46;98160.31;;;26.71;23.16
21401;BME280;18038;50.166;18.908;2023-05-29T12:38:52;98166.66;;;25.61;22.98
21401;BME280;18038;50.166;18.908;2023-05-29T12:42:01;98168.16;;;25.14;23.99
21401;BME280;18038;50.166;18.908;2023-05-29T12:45:09;98157.56;;;24.68;25.84
21401;BME280;18038;50.166;18.908;2023-05-29T12:48:21;98162.53;;;24.61;25.33
21401;BME280;18038;50.166;18.908;2023-05-29T12:51:40;98158.25;;;24.89;25.35
21401;BME280;18038;50.166;18.908;2023-05-29T12:54:48;98158.44;;;24.03;24.48
21401;BME280;18038;50.166;18.908;2023-05-29T12:57:54;98159.97;;;24.25;25.27
21401;BME280;18038;50.166;18.908;2023-05-29T13:01:01;98151.75;;;23.70;25.30
21401;BME280;18038;50.166;18.908;2023-05-29T13:04:08;98149.50;;;23.88;24.73
21401;BME280;18038;50.166;18.908;2023-05-29T13:07:20;98143.81;;;23.79;26.28
21401;BME280;18038;50.166;18.908;2023-05-29T13:10:31;98142.53;;;22.79;25.95
21401;BME280;18038;50.166;18.908;2023-05-29T13:13:38;98138.78;;;22.95;26.00
21401;BME280;18038;50.166;18.908;2023-05-29T13:16:44;98141.47;;;22.75;26.09
21401;BME280;18038;50.166;18.908;2023-05-29T13:19:51;98136.28;;;22.89;27.88
21401;BME280;18038;50.166;18.908;2023-05-29T13:22:59;98130.03;;;22.68;26.36
21401;BME280;18038;50.166;18.908;2023-05-29T13:26:07;98136.03;;;22.90;27.30
21401;BME280;18038;50.166;18.908;2023-05-29T13:29:13;98127.56;;;22.76;26.93
21401;BME280;18038;50.166;18.908;2023-05-29T13:32:19;98120.50;;;22.81;27.44
21401;BME280;18038;50.166;18.908;2023-05-29T13:35:25;98122.41;;;23.06;27.25
21401;BME280;18038;50.166;18.908;2023-05-29T13:38:35;98116.69;;;23.12;28.98
21401;BME280;18038;50.166;18.908;2023-05-29T13:41:41;98113.44;;;23.10;26.62
21401;BME280;18038;50.166;18.908;2023-05-29T13:44:49;98103.88;;;23.13;27.40
21401;BME280;18038;50.166;18.908;2023-05-29T13:47:56;98106.59;;;23.28;27.59
21401;BME280;18038;50.166;18.908;2023-05-29T13:51:04;98101.13;;;23.33;26.06
21401;BME280;18038;50.166;18.908;2023-05-29T13:54:13;98099.81;;;22.59;26.39
21401;BME280;18038;50.166;18.908;2023-05-29T13:57:22;98104.41;;;22.43;27.84
21401;BME280;18038;50.166;18.908;2023-05-29T14:00:28;98096.53;;;22.52;28.92
21401;BME280;18038;50.166;18.908;2023-05-29T14:03:36;98101.72;;;22.48;28.30
21401;BME280;18038;50.166;18.908;2023-05-29T14:06:44;98090.28;;;22.51;27.18
21401;BME280;18038;50.166;18.908;2023-05-29T14:09:54;98090.00;;;22.63;27.91
21401;BME280;18038;50.166;18.908;2023-05-29T14:13:00;98096.00;;;22.75;28.29
21401;BME280;18038;50.166;18.908;2023-05-29T14:16:15;98096.28;;;23.00;28.04
21401;BME280;18038;50.166;18.908;2023-05-29T14:19:26;98088.63;;;22.71;26.60
21401;BME280;18038;50.166;18.908;2023-05-29T14:22:33;98074.16;;;22.19;27.98
21401;BME280;18038;50.166;18.908;2023-05-29T14:25:42;98083.47;;;22.44;28.66
21401;BME280;18038;50.166;18.908;2023-05-29T14:28:49;98078.56;;;22.30;29.36
21401;BME280;18038;50.166;18.908;2023-05-29T14:32:11;98073.66;;;22.32;28.34
21401;BME280;18038;50.166;18.908;2023-05-29T14:35:23;98080.19;;;22.42;28.29
21401;BME280;18038;50.166;18.908;2023-05-29T14:38:29;98072.03;;;22.42;27.69
21401;BME280;18038;50.166;18.908;2023-05-29T14:41:39;98073.16;;;22.56;28.29
21401;BME280;18038;50.166;18.908;2023-05-29T14:44:45;98073.84;;;22.00;28.76
21401;BME280;18038;50.166;18.908;2023-05-29T14:47:55;98068.66;;;21.99;28.60
21401;BME280;18038;50.166;18.908;2023-05-29T14:51:01;98066.44;;;21.80;28.87
21401;BME280;18038;50.166;18.908;2023-05-29T14:54:08;98068.13;;;22.02;27.61
21401;BME280;18038;50.166;18.908;2023-05-29T14:57:17;98065.06;;;21.73;28.15
21401;BME280;18038;50.166;18.908;2023-05-29T15:00:24;98066.66;;;21.63;28.40
21401;BME280;18038;50.166;18.908;2023-05-29T15:03:30;98063.63;;;21.60;28.11
21401;BME280;18038;50.166;18.908;2023-05-29T15:06:38;98065.00;;;21.62;28.35
21401;BME280;18038;50.166;18.908;2023-05-29T15:09:48;98067.81;;;21.83;28.47
21401;BME280;18038;50.166;18.908;2023-05-29T15:12:57;98065.72;;;22.05;28.93
21401;BME280;18038;50.166;18.908;2023-05-29T15:16:07;98070.28;;;21.84;29.43
21401;BME280;18038;50.166;18.908;2023-05-29T15:19:21;98065.59;;;21.70;28.33
21401;BME280;18038;50.166;18.908;2023-05-29T15:22:27;98062.28;;;21.62;28.81
21401;BME280;18038;50.166;18.908;2023-05-29T15:25:33;98059.84;;;21.56;28.13
21401;BME280;18038;50.166;18.908;2023-05-29T15:28:42;98066.09;;;21.14;28.84
21401;BME280;18038;50.166;18.908;2023-05-29T15:31:57;98054.88;;;21.48;28.99
21401;BME280;18038;50.166;18.908;2023-05-29T15:35:16;98060.34;;;21.53;29.10
21401;BME280;18038;50.166;18.908;2023-05-29T15:38:23;98059.03;;;21.65;29.11
21401;BME280;18038;50.166;18.908;2023-05-29T15:41:29;98060.50;;;21.94;28.93
21401;BME280;18038;50.166;18.908;2023-05-29T15:44:38;98067.56;;;22.00;29.00
21401;BME280;18038;50.166;18.908;2023-05-29T15:47:44;98065.94;;;21.99;29.04
21401;BME280;18038;50.166;18.908;2023-05-29T15:50:56;98065.97;;;22.04;28.26
21401;BME280;18038;50.166;18.908;2023-05-29T15:54:10;98066.72;;;21.84;29.16
21401;BME280;18038;50.166;18.908;2023-05-29T15:57:17;98069.72;;;21.82;29.64
21401;BME280;18038;50.166;18.908;2023-05-29T16:00:33;98067.53;;;21.79;30.28
21401;BME280;18038;50.166;18.908;2023-05-29T16:03:40;98065.59;;;21.75;30.20
21401;BME280;18038;50.166;18.908;2023-05-29T16:06:46;98063.09;;;21.63;29.58
21401;BME280;18038;50.166;18.908;2023-05-29T16:09:53;98063.78;;;22.01;29.59
21401;BME280;18038;50.166;18.908;2023-05-29T16:13:05;98066.69;;;21.69;28.97
21401;BME280;18038;50.166;18.908;2023-05-29T16:37:39;98058.75;;;21.62;28.74
21401;BME280;18038;50.166;18.908;2023-05-29T16:40:46;98058.25;;;21.75;28.76
21401;BME280;18038;50.166;18.908;2023-05-29T16:43:53;98058.78;;;21.67;28.76
21401;BME280;18038;50.166;18.908;2023-05-29T16:47:04;98062.63;;;21.86;29.58
21401;BME280;18038;50.166;18.908;2023-05-29T16:50:10;98054.81;;;21.95;29.30
21401;BME280;18038;50.166;18.908;2023-05-29T16:53:20;98061.50;;;21.67;29.08
21401;BME280;18038;50.166;18.908;2023-05-29T16:56:27;98068.84;;;21.66;28.83
21401;BME280;18038;50.166;18.908;2023-05-29T16:59:34;98066.09;;;21.61;29.12